createdAt,value
2023-04-04T15:09:30.854Z,26.26
2023-04-04T15:11:59.034Z,25.38
2023-04-04T15:14:26.614Z,24.22
2023-04-04T15:16:54.416Z,26.32
2023-04-04T15:19:22.038Z,26.94
2023-04-04T15:21:50.081Z,26.70
2023-04-04T15:24:17.557Z,24.63
2023-04-04T15:26:45.096Z,25.17
2023-04-04T15:29:14.675Z,24.94
2023-04-04T15:31:42.824Z,23.81
2023-04-04T15:34:10.406Z,24.17
2023-04-04T15:36:37.975Z,23.13
2023-04-04T15:39:05.525Z,23.34
2023-04-04T15:41:33.111Z,24.80
2023-04-04T15:44:00.684Z,25.33
2023-04-04T15:46:28.537Z,24.14
2023-04-04T15:48:56.597Z,24.92
2023-04-04T15:51:25.581Z,23.77
2023-04-04T15:53:56.655Z,25.56
2023-04-04T15:56:24.241Z,23.90
2023-04-04T15:58:51.781Z,22.36
2023-04-04T16:01:19.462Z,23.95
2023-04-04T16:03:47.208Z,25.34
2023-04-04T16:06:15.004Z,23.71
2023-04-04T16:08:43.616Z,23.08
2023-04-04T16:11:18.414Z,24.59
2023-04-04T16:13:46.071Z,25.10
2023-04-04T16:16:14.178Z,25.86
2023-04-04T16:18:41.958Z,24.55
2023-04-04T16:21:09.651Z,22.92
2023-04-04T16:23:38.956Z,24.52
2023-04-04T16:26:06.718Z,23.25
2023-04-04T16:28:34.761Z,22.98
2023-04-04T16:31:02.879Z,23.04
2023-04-04T16:33:30.528Z,22.68
2023-04-04T16:35:58.024Z,22.93
2023-04-04T16:38:25.845Z,23.62
2023-04-04T16:40:53.403Z,23.41
2023-04-04T16:43:20.983Z,22.41
2023-04-04T16:45:48.588Z,23.65
2023-04-04T16:48:16.157Z,24.63
2023-04-04T16:50:44.149Z,23.20
2023-04-04T16:53:11.893Z,23.31
2023-04-04T16:55:40.453Z,24.21
2023-04-04T16:58:08.242Z,23.95
2023-04-04T17:00:35.805Z,21.75
2023-04-04T17:03:04.255Z,21.80
2023-04-04T17:05:31.841Z,22.17
2023-04-04T17:07:59.638Z,21.92
2023-04-04T17:10:28.107Z,22.19
2023-04-04T17:12:55.898Z,22.42
2023-04-04T17:15:24.154Z,21.78
2023-04-04T17:17:52.199Z,20.49
2023-04-04T17:20:20.109Z,19.90
2023-04-04T17:22:47.852Z,20.16
2023-04-04T17:25:15.543Z,20.43
2023-04-04T17:27:43.160Z,19.31
2023-04-04T17:30:11.616Z,19.82
2023-04-04T17:32:39.832Z,19.60
2023-04-04T17:35:07.872Z,20.17
2023-04-04T17:37:35.520Z,19.51
2023-04-04T17:40:05.361Z,20.67
2023-04-04T17:42:33.025Z,19.56
2023-04-04T17:45:00.934Z,18.93
2023-04-04T17:47:29.206Z,18.62
2023-04-04T17:49:57.366Z,19.62
2023-04-04T17:52:25.217Z,19.60
2023-04-04T17:54:53.783Z,19.36
2023-04-04T17:57:21.934Z,18.76
2023-04-04T17:59:49.765Z,18.70
2023-04-04T18:02:18.709Z,19.59
2023-04-04T18:04:48.666Z,18.94
2023-04-04T18:07:16.954Z,18.84
2023-04-04T18:09:44.906Z,18.61
2023-04-04T18:12:15.927Z,17.85
2023-04-04T18:14:43.514Z,18.94
2023-04-04T18:17:11.061Z,18.86
2023-04-04T18:19:41.479Z,18.88
2023-04-04T18:22:09.476Z,19.29
2023-04-04T18:24:37.354Z,18.13
2023-04-04T18:27:04.912Z,17.48
2023-04-04T18:29:32.740Z,19.05
2023-04-04T18:32:03.744Z,18.85
2023-04-04T18:34:31.435Z,17.88
2023-04-04T18:36:59.048Z,18.45
2023-04-04T18:39:27.983Z,18.16
2023-04-04T18:41:56.703Z,18.34
2023-04-04T18:44:24.402Z,17.40
2023-04-04T18:46:52.662Z,17.88
2023-04-04T18:49:20.292Z,18.11
2023-04-04T18:51:49.174Z,17.70
2023-04-04T18:54:17.054Z,17.82
2023-04-04T18:56:45.310Z,17.73
2023-04-04T18:59:12.922Z,16.88
2023-04-04T19:01:40.845Z,16.62
2023-04-04T19:04:10.404Z,17.52
2023-04-04T19:06:40.222Z,16.92
2023-04-04T19:09:09.833Z,17.93
2023-04-04T19:11:38.322Z,16.96
2023-04-04T19:14:09.094Z,15.91
2023-04-04T19:16:37.308Z,17.39
2023-04-04T19:19:05.045Z,17.86
2023-04-04T19:21:33.532Z,17.04
2023-04-04T19:24:01.330Z,17.14
2023-04-04T19:26:29.161Z,17.24
2023-04-04T19:28:58.065Z,16.64
2023-04-04T19:31:30.130Z,17.04
2023-04-04T19:33:58.531Z,16.30
2023-04-04T19:36:28.397Z,17.55
2023-04-04T19:38:56.099Z,16.81
2023-04-04T19:41:33.735Z,17.42
2023-04-04T19:44:02.431Z,17.42
2023-04-04T19:46:32.846Z,17.09
2023-04-04T19:49:14.399Z,17.24
2023-04-04T19:51:55.874Z,16.94
2023-04-04T19:54:27.501Z,17.11
2023-04-04T19:57:01.038Z,17.52
2023-04-04T20:00:03.340Z,16.78
2023-04-04T20:02:36.480Z,16.51
2023-04-04T20:05:44.365Z,17.28
2023-04-04T20:08:12.070Z,16.41
2023-04-04T20:10:42.233Z,17.79
2023-04-04T20:13:10.188Z,16.73
2023-04-04T20:15:56.198Z,16.95
2023-04-04T20:18:26.317Z,16.65
2023-04-04T20:21:01.079Z,17.16
2023-04-04T20:23:31.409Z,16.74
2023-04-04T20:26:07.972Z,16.38
2023-04-04T20:28:36.405Z,16.02
2023-04-04T20:31:12.060Z,17.08
2023-04-04T20:33:40.815Z,17.02
2023-04-04T20:36:32.521Z,17.15
2023-04-04T20:39:00.583Z,17.09
2023-04-04T20:41:28.969Z,16.39
2023-04-04T20:43:58.832Z,16.51
2023-04-04T20:46:28.764Z,16.50
2023-04-04T20:48:57.038Z,16.43
2023-04-04T20:51:33.023Z,16.27
2023-04-04T20:54:02.563Z,17.02
2023-04-04T20:56:41.997Z,16.18
2023-04-04T20:59:36.693Z,16.86
2023-04-04T21:02:10.683Z,16.87
2023-04-04T21:04:39.823Z,16.87
2023-04-04T21:07:07.435Z,16.35
2023-04-04T21:09:35.138Z,17.22
2023-04-04T21:12:04.777Z,17.15
2023-04-04T21:14:36.436Z,16.36
2023-04-04T21:17:06.247Z,16.91
2023-04-04T21:19:34.047Z,16.78
2023-04-04T21:22:01.976Z,17.03
2023-04-04T21:24:35.483Z,16.90
2023-04-04T21:27:06.967Z,16.95
2023-04-04T21:29:34.486Z,17.23
2023-04-04T21:32:03.797Z,17.35
2023-04-04T21:34:31.393Z,17.97
2023-04-04T21:37:03.107Z,17.73
2023-04-04T21:39:31.182Z,17.91
2023-04-04T21:42:07.980Z,17.76
2023-04-04T21:44:36.601Z,17.63
2023-04-04T21:47:04.104Z,16.89
2023-04-04T21:49:31.706Z,16.24
2023-04-04T21:52:01.628Z,16.89
2023-04-04T21:54:29.138Z,17.63
2023-04-04T21:56:56.882Z,17.57
2023-04-04T21:59:24.562Z,17.04
2023-04-04T22:01:52.327Z,17.55
2023-04-04T22:04:19.928Z,18.53
2023-04-04T22:06:47.398Z,18.03
2023-04-04T22:09:15.950Z,16.96
2023-04-04T22:11:46.474Z,19.25
2023-04-04T22:14:17.640Z,19.09
2023-04-04T22:16:45.800Z,19.61
2023-04-04T22:19:13.419Z,18.74
2023-04-04T22:21:48.207Z,18.62
2023-04-04T22:24:17.942Z,18.22
2023-04-04T22:26:46.348Z,18.06
2023-04-04T22:29:14.148Z,17.93
2023-04-04T22:31:41.774Z,17.78
2023-04-04T22:34:09.618Z,18.93
2023-04-04T22:36:38.660Z,18.52
2023-04-04T22:39:06.491Z,18.32
2023-04-04T22:41:33.998Z,18.74
2023-04-04T22:44:01.673Z,18.99
2023-04-04T22:46:30.025Z,18.98
2023-04-04T22:49:05.697Z,19.20
2023-04-04T22:51:43.144Z,18.05
2023-04-04T22:54:13.211Z,19.19
2023-04-04T22:56:40.967Z,18.75
2023-04-04T22:59:08.677Z,18.72
2023-04-04T23:01:36.393Z,18.96
2023-04-04T23:04:04.221Z,19.30
2023-04-04T23:06:32.584Z,18.76
2023-04-04T23:09:01.363Z,18.81
2023-04-04T23:11:31.337Z,19.12
2023-04-04T23:13:59.000Z,19.15
2023-04-04T23:16:28.892Z,19.25
2023-04-04T23:18:57.198Z,17.37
2023-04-04T23:21:25.086Z,17.56
2023-04-04T23:23:52.655Z,18.68
2023-04-04T23:26:20.355Z,18.46
2023-04-04T23:28:48.109Z,18.86
2023-04-04T23:31:16.963Z,18.72
2023-04-04T23:33:45.129Z,18.10
2023-04-04T23:36:12.733Z,17.40
2023-04-04T23:38:40.299Z,18.36
2023-04-04T23:41:08.190Z,17.96
2023-04-04T23:43:36.119Z,17.62
2023-04-04T23:46:04.074Z,17.73
2023-04-04T23:48:32.541Z,18.74
2023-04-04T23:51:01.783Z,18.98
2023-04-04T23:53:29.789Z,18.63
2023-04-04T23:55:57.433Z,18.31
2023-04-04T23:58:25.306Z,18.81
